Farmington, UT (84025)

3:24 AM MDT on October 23, 2014 (GMT -0600)
KUTBOUNT14 | Change Station
CLOSE
Current Station
Personal Weather Station
Location: Rogo's Weather Station (EW2533): Bountiful Bench, UT
Elevation: 5114 ft
Nearby Weather Stations

Elev 5114 ft 40.90 °N, 111.85 °W | Updated 0 second ago

Clear
Clear
50.6 °F
Feels Like 50.6 °F
N
3.0
Wind Variable Wind from SE
Gusts 6.0 mph

Today
High -- | Low -- °F
--% Chance of Precip.
Yesterday
High -- | Low -- °F
Precip. -- in
7:47 AM 6:34 PM
Waning Crescent, 0% visible
Pressure 30.09 in
Visibility 10.0 miles
Clouds Clear
Dew Point 28 °F
Humidity 41%
Rainfall 0.00 in
Snow Depth Not available.
UV 0 out of 12
Pollen 1.60 out of 12
Ozone Good
PM2.5 Good
Flu Activity Sporadic
METAR KHIF 230858Z AUTO 11012KT 10SM CLR 08/M03 A3017 RMK AO2 SLP189 T00791033 55001

More Conditions Fewer Conditions

Pressure 30.09 in
Visibility 10.0 miles
Clouds Clear
Dew Point 28 °F
Humidity 41%
Rainfall 0.00 in
Snow Depth Not available.
UV 0 out of 12
Pollen 1.60 out of 12
Ozone Good
PM2.5 Good
Flu Activity Sporadic
METAR KHIF 230858Z AUTO 11012KT 10SM CLR 08/M03 A3017 RMK AO2 SLP189 T00791033 55001

More Conditions Fewer Conditions

10-Day Weather Forecast

Almanac

Astronomy

Oct. 23, 2014 Rise Set
Actual Time 7:47 AM MDT 6:34 PM MDT
Civil Twilight 7:19 AM MDT 7:03 PM MDT
Nautical Twilight 6:47 AM MDT 7:35 PM MDT
Astronomical Twilight 6:15 AM MDT 8:06 PM MDT
Moon 7:31 AM MDT 6:38 PM MDT
Length of Visible Light 11h 43m
Length of Day
10h 47m
Tomorrow will be 2m 31s shorter.
Waning Crescent, 0% of the Moon is Illuminated
Today
Waning Crescent
Oct 23
New
Oct 30
First Quarter
Nov 6
Full
Nov 14
Last Quarter

Today's Extremes

State Highs State Lows

Community

WunderPhotos

Upload Photos

1,764,199 photos uploaded!

Nearby

Air Quality

  Air Quality AQ Index Pollutant
Yesterday Good
PM10
Yesterday Good
OZONE
Current Good
PM2.5
Current Good
OZONE
Thursday Good
OZONE
Friday Good
OZONE

Snow Depth

Station Depth Elevation
Farmington 1 in 8000 ft
Parrish Creek 0 in 7740 ft
Louis Meadow 1 in 6700 ft
Lookout Peak 1 in 8200 ft
Mill-d North 0 in 8960 ft

Earthquake Activity

City Distance Mag. Time & Date
No recent earthquake activity has been reported nearby.
Minimum magnitude displayed is 2.5.

Coastal Water Temperatures

Place Temperature
No Stations Reporting

Nearby Weather Stations